createdAt,value
2023-03-16T00:01:03.461Z,99474.44
2023-03-16T00:03:30.573Z,99480.09
2023-03-16T00:06:05.008Z,99474.98
2023-03-16T00:08:34.209Z,99471.75
2023-03-16T00:11:02.762Z,99465.69
2023-03-16T00:13:30.608Z,99463.20
2023-03-16T00:16:07.122Z,99463.06
2023-03-16T00:18:38.425Z,99454.53
2023-03-16T00:21:06.189Z,99451.98
2023-03-16T00:23:35.454Z,99447.96
2023-03-16T00:26:08.651Z,99453.64
2023-03-16T00:28:38.901Z,99464.19
2023-03-16T00:31:11.374Z,99470.20
2023-03-16T00:33:44.803Z,99472.67
2023-03-16T00:36:12.320Z,99476.77
2023-03-16T00:38:48.702Z,99471.38
2023-03-16T00:41:16.480Z,99464.63
2023-03-16T00:43:44.918Z,99465.70
2023-03-16T00:46:15.226Z,99460.30
2023-03-16T00:48:45.868Z,99462.64
2023-03-16T00:51:16.083Z,99458.94
2023-03-16T00:53:45.788Z,99453.09
2023-03-16T00:56:13.265Z,99447.00
2023-03-16T00:58:42.652Z,99443.61
2023-03-16T01:01:18.354Z,99440.13
2023-03-16T01:03:46.860Z,99442.60
2023-03-16T01:06:17.208Z,99434.35
2023-03-16T01:08:44.343Z,99434.87
2023-03-16T01:11:17.036Z,99439.83
2023-03-16T01:13:49.159Z,99446.23
2023-03-16T01:16:22.803Z,99463.14
2023-03-16T01:18:50.006Z,99454.84
2023-03-16T01:21:17.323Z,99455.91
2023-03-16T01:23:44.647Z,99452.61
2023-03-16T01:26:12.807Z,99449.45
2023-03-16T01:28:39.827Z,99449.65
2023-03-16T01:31:11.779Z,99456.71
2023-03-16T01:33:38.839Z,99455.69
2023-03-16T01:36:11.674Z,99461.89
2023-03-16T01:38:52.468Z,99453.02
2023-03-16T01:41:19.769Z,99447.94
2023-03-16T01:43:46.867Z,99451.64
2023-03-16T01:46:27.546Z,99464.59
2023-03-16T01:49:01.898Z,99468.19
2023-03-16T01:51:35.351Z,99474.63
2023-03-16T01:54:14.033Z,99474.89
2023-03-16T01:57:07.497Z,99471.95
2023-03-16T02:00:18.548Z,99468.79
2023-03-16T02:03:07.531Z,99474.93
2023-03-16T02:05:49.170Z,99470.93
2023-03-16T02:08:18.993Z,99470.73
2023-03-16T02:10:46.281Z,99468.10
2023-03-16T02:13:13.591Z,99456.65
2023-03-16T02:15:41.323Z,99453.45
2023-03-16T02:18:08.722Z,99453.45
2023-03-16T02:20:42.092Z,99457.59
2023-03-16T02:23:18.230Z,99452.05
2023-03-16T02:26:01.901Z,99450.95
2023-03-16T02:28:47.668Z,99435.51
2023-03-16T02:31:19.751Z,99439.08
2023-03-16T02:33:49.816Z,99436.21
2023-03-16T02:36:18.453Z,99446.65
2023-03-16T02:38:46.487Z,99432.11
2023-03-16T02:41:18.684Z,99423.54
2023-03-16T02:43:58.840Z,99411.90
2023-03-16T02:46:35.351Z,99420.69
2023-03-16T02:49:10.603Z,99417.45
2023-03-16T02:51:38.187Z,99422.33
2023-03-16T02:54:05.217Z,99421.04
2023-03-16T02:56:36.786Z,99433.18
2023-03-16T02:59:03.945Z,99434.95
2023-03-16T03:01:34.516Z,99427.38
2023-03-16T03:04:04.265Z,99419.54
2023-03-16T03:06:33.185Z,99434.11
2023-03-16T03:09:02.714Z,99437.19
2023-03-16T03:11:30.625Z,99437.35
2023-03-16T03:13:57.792Z,99439.32
2023-03-16T03:16:26.648Z,99439.98
2023-03-16T03:18:55.488Z,99435.55
2023-03-16T03:21:24.492Z,99427.65
2023-03-16T03:23:51.621Z,99434.69
2023-03-16T03:26:19.444Z,99438.79
2023-03-16T03:28:48.878Z,99446.13
2023-03-16T03:31:20.226Z,99445.89
2023-03-16T03:33:47.989Z,99441.93
2023-03-16T03:36:15.633Z,99445.58
2023-03-16T03:38:43.860Z,99447.65
2023-03-16T03:41:13.547Z,99442.67
2023-03-16T03:43:41.527Z,99447.58
2023-03-16T03:46:18.700Z,99442.83
2023-03-16T03:48:46.586Z,99435.66
2023-03-16T03:51:13.929Z,99435.22
2023-03-16T03:53:58.461Z,99442.73
2023-03-16T03:56:37.899Z,99441.98
2023-03-16T03:59:06.419Z,99435.59
2023-03-16T04:01:53.273Z,99424.94
2023-03-16T04:04:21.470Z,99408.63
2023-03-16T04:06:50.737Z,99415.76
2023-03-16T04:09:18.208Z,99425.85
2023-03-16T04:11:45.603Z,99428.48
2023-03-16T04:14:12.623Z,99427.65
2023-03-16T04:16:39.945Z,99415.84
2023-03-16T04:19:07.047Z,99412.07
2023-03-16T04:21:34.221Z,99413.73
2023-03-16T04:24:09.119Z,99422.48
2023-03-16T04:26:37.648Z,99420.05
2023-03-16T04:29:05.029Z,99416.64
2023-03-16T04:31:35.718Z,99412.25
2023-03-16T04:34:03.105Z,99403.84
2023-03-16T04:36:32.613Z,99405.98
2023-03-16T04:39:04.349Z,99413.20
2023-03-16T04:41:32.362Z,99413.84
2023-03-16T04:44:22.420Z,99422.44
2023-03-16T04:46:50.497Z,99426.39
2023-03-16T04:49:21.357Z,99422.07
2023-03-16T04:51:49.019Z,99420.84
2023-03-16T04:54:18.779Z,99418.65
2023-03-16T04:56:46.478Z,99421.23
2023-03-16T04:59:28.917Z,99432.49
2023-03-16T05:02:06.146Z,99437.63
2023-03-16T05:04:34.020Z,99442.69
2023-03-16T05:07:07.871Z,99441.14
2023-03-16T05:09:37.489Z,99441.66
2023-03-16T05:12:04.834Z,99445.73
2023-03-16T05:14:35.520Z,99444.22
2023-03-16T05:17:14.216Z,99442.95
2023-03-16T05:19:41.838Z,99447.89
2023-03-16T05:22:09.558Z,99451.02
2023-03-16T05:24:37.392Z,99454.67
2023-03-16T05:27:08.436Z,99448.34
2023-03-16T05:29:36.713Z,99449.98
2023-03-16T05:32:06.689Z,99453.08
2023-03-16T05:34:34.216Z,99461.80
2023-03-16T05:37:01.252Z,99462.42
2023-03-16T05:39:30.273Z,99457.52
2023-03-16T05:41:57.833Z,99461.42
2023-03-16T05:44:36.551Z,99461.65
2023-03-16T05:47:09.730Z,99464.27
2023-03-16T05:49:40.241Z,99468.64
2023-03-16T05:52:13.343Z,99463.21
2023-03-16T05:54:40.585Z,99460.92
2023-03-16T05:57:09.138Z,99458.72
2023-03-16T05:59:36.470Z,99463.39
2023-03-16T06:02:04.086Z,99469.39
2023-03-16T06:04:31.531Z,99475.74
2023-03-16T06:06:59.229Z,99483.13
2023-03-16T06:09:29.274Z,99486.51
2023-03-16T06:11:56.846Z,99493.58
2023-03-16T06:14:24.427Z,99490.39
2023-03-16T06:16:56.151Z,99494.05
2023-03-16T06:19:23.233Z,99493.97
2023-03-16T06:21:54.506Z,99496.80
2023-03-16T06:24:25.819Z,99503.81
2023-03-16T06:26:53.552Z,99498.83
2023-03-16T06:29:21.729Z,99496.29
2023-03-16T06:31:50.788Z,99493.68
2023-03-16T06:34:18.924Z,99488.00
2023-03-16T06:36:46.193Z,99489.89
2023-03-16T06:39:13.951Z,99485.27
2023-03-16T06:41:43.714Z,99481.65
2023-03-16T06:44:15.441Z,99479.98
2023-03-16T06:46:52.096Z,99480.83
2023-03-16T06:49:23.532Z,99480.33
2023-03-16T06:51:50.740Z,99479.95
2023-03-16T06:54:17.907Z,99474.53
2023-03-16T06:56:46.411Z,99470.02
2023-03-16T06:59:13.626Z,99470.93
2023-03-16T07:01:43.917Z,99469.30
2023-03-16T07:04:12.246Z,99465.48
2023-03-16T07:06:39.669Z,99461.71
2023-03-16T07:09:09.769Z,99466.02
2023-03-16T07:11:37.123Z,99463.48
2023-03-16T07:14:11.329Z,99462.91
2023-03-16T07:16:43.214Z,99463.80
2023-03-16T07:19:11.629Z,99457.13
2023-03-16T07:21:40.403Z,99451.63
2023-03-16T07:24:12.530Z,99445.95
2023-03-16T07:26:41.013Z,99450.59
2023-03-16T07:29:09.514Z,99451.06
2023-03-16T07:31:37.459Z,99454.59
2023-03-16T07:34:07.757Z,99462.91
2023-03-16T07:36:41.441Z,99459.05
2023-03-16T07:39:08.539Z,99464.02
2023-03-16T07:41:36.967Z,99458.08
2023-03-16T07:44:30.834Z,99457.73
2023-03-16T07:47:00.021Z,99454.98
2023-03-16T07:50:10.885Z,99454.52
2023-03-16T07:52:43.646Z,99464.73
2023-03-16T07:55:11.370Z,99463.95
2023-03-16T07:57:47.398Z,99466.20
2023-03-16T08:00:16.869Z,99465.44
2023-03-16T08:02:44.783Z,99462.85
2023-03-16T08:05:14.884Z,99460.61
2023-03-16T08:07:45.553Z,99461.02
2023-03-16T08:10:16.620Z,99462.54
2023-03-16T08:12:51.633Z,99463.05
2023-03-16T08:15:19.131Z,99460.05
2023-03-16T08:17:47.401Z,99462.73
2023-03-16T08:20:26.552Z,99458.71
2023-03-16T08:22:54.616Z,99462.17
2023-03-16T08:25:26.092Z,99462.72
2023-03-16T08:28:10.266Z,99465.45
2023-03-16T08:30:44.397Z,99460.37
2023-03-16T08:33:36.784Z,99465.27
2023-03-16T08:36:09.828Z,99465.77
2023-03-16T08:38:39.668Z,99468.81
2023-03-16T08:41:08.820Z,99474.73
2023-03-16T08:43:36.966Z,99473.61
2023-03-16T08:46:06.294Z,99471.73
2023-03-16T08:48:43.414Z,99468.71
2023-03-16T08:51:13.330Z,99471.16
2023-03-16T08:53:40.256Z,99472.70
2023-03-16T08:56:11.931Z,99479.23
2023-03-16T08:58:45.446Z,99482.05
2023-03-16T09:01:14.733Z,99484.43
2023-03-16T09:03:45.878Z,99486.92
2023-03-16T09:06:16.635Z,99485.71
2023-03-16T09:08:44.963Z,99485.22
2023-03-16T09:11:18.307Z,99479.63
2023-03-16T09:13:46.800Z,99480.89
2023-03-16T09:16:18.511Z,99483.19
2023-03-16T09:18:45.925Z,99476.08
2023-03-16T09:21:13.385Z,99479.27
2023-03-16T09:23:42.358Z,99490.37
2023-03-16T09:26:11.981Z,99495.13
2023-03-16T09:28:41.677Z,99502.38
2023-03-16T09:31:17.395Z,99509.67
2023-03-16T09:33:44.449Z,99507.80
2023-03-16T09:36:13.572Z,99507.39
2023-03-16T09:38:44.079Z,99511.24
2023-03-16T09:41:34.609Z,99509.40
2023-03-16T09:44:11.986Z,99505.10
2023-03-16T09:46:45.027Z,99494.92
2023-03-16T09:49:17.144Z,99494.59
2023-03-16T09:51:48.394Z,99492.81
2023-03-16T09:54:18.843Z,99492.39
2023-03-16T09:56:49.780Z,99487.73
2023-03-16T09:59:18.524Z,99493.08
2023-03-16T10:01:54.776Z,99489.90
2023-03-16T10:04:39.146Z,99491.29
2023-03-16T10:07:20.620Z,99485.89
2023-03-16T10:10:02.190Z,99477.42
2023-03-16T10:12:41.479Z,99478.29
2023-03-16T10:15:15.919Z,99474.06
2023-03-16T10:18:01.801Z,99474.06
2023-03-16T10:20:33.695Z,99473.73
2023-03-16T10:23:12.860Z,99473.66
2023-03-16T10:25:49.427Z,99466.10
2023-03-16T10:28:21.016Z,99461.62
2023-03-16T10:30:57.577Z,99456.27
2023-03-16T10:33:34.221Z,99448.39
2023-03-16T10:36:05.108Z,99447.89
2023-03-16T10:38:46.251Z,99462.92
2023-03-16T10:41:25.438Z,99461.99
2023-03-16T10:44:11.476Z,99461.25
2023-03-16T10:46:50.967Z,99455.52
2023-03-16T10:49:27.775Z,99450.73
2023-03-16T10:52:02.373Z,99443.68
2023-03-16T10:54:40.602Z,99446.01
2023-03-16T10:57:27.740Z,99437.38
2023-03-16T10:59:59.540Z,99438.17
2023-03-16T11:02:35.198Z,99438.63
2023-03-16T11:05:17.916Z,99435.48
2023-03-16T11:07:54.176Z,99433.83
2023-03-16T11:10:38.074Z,99428.20
2023-03-16T11:13:18.237Z,99432.80
2023-03-16T11:15:51.197Z,99431.88
2023-03-16T11:18:35.209Z,99428.30
2023-03-16T11:21:12.380Z,99431.59
2023-03-16T11:23:49.151Z,99420.73
2023-03-16T11:26:27.355Z,99420.27
2023-03-16T11:29:03.294Z,99423.17
2023-03-16T11:32:00.312Z,99430.70
2023-03-16T11:34:30.241Z,99436.63
2023-03-16T11:37:21.216Z,99434.91
2023-03-16T11:39:54.369Z,99427.25
2023-03-16T11:42:30.561Z,99434.23
2023-03-16T11:45:22.366Z,99439.65
2023-03-16T11:48:06.126Z,99425.64
2023-03-16T11:50:44.568Z,99413.09
2023-03-16T11:53:14.537Z,99410.88
2023-03-16T11:56:16.941Z,99410.63
2023-03-16T11:59:15.416Z,99420.71
2023-03-16T12:02:00.741Z,99433.77
2023-03-16T12:04:40.595Z,99439.00
2023-03-16T12:07:34.872Z,99445.96
2023-03-16T12:10:21.800Z,99449.02
2023-03-16T12:13:04.399Z,99450.53
2023-03-16T12:15:52.938Z,99453.30
2023-03-16T12:18:29.743Z,99445.32
2023-03-16T12:21:01.962Z,99437.92
2023-03-16T12:23:35.469Z,99433.89
2023-03-16T12:26:03.681Z,99429.80
2023-03-16T12:28:32.889Z,99422.75
2023-03-16T12:31:14.219Z,99427.59
2023-03-16T12:33:56.467Z,99435.09
2023-03-16T12:36:26.158Z,99435.41
2023-03-16T12:39:06.946Z,99441.27
2023-03-16T12:41:56.760Z,99442.34
2023-03-16T12:44:33.791Z,99453.87
2023-03-16T12:47:12.601Z,99466.23
2023-03-16T12:49:39.861Z,99468.84
2023-03-16T12:52:11.987Z,99463.71
2023-03-16T12:55:05.538Z,99465.91
2023-03-16T12:57:33.266Z,99466.94
2023-03-16T13:00:01.279Z,99459.71
2023-03-16T13:02:32.146Z,99455.20
2023-03-16T13:05:12.447Z,99454.35
2023-03-16T13:07:51.972Z,99454.08
2023-03-16T13:10:21.998Z,99461.02
2023-03-16T13:12:50.973Z,99459.42
2023-03-16T13:15:21.693Z,99456.52
2023-03-16T13:18:09.390Z,99456.80
2023-03-16T13:21:13.830Z,99457.27
2023-03-16T13:24:19.948Z,99461.51
2023-03-16T13:26:51.730Z,99464.39
2023-03-16T13:29:32.756Z,99468.70
2023-03-16T13:32:02.890Z,99471.97
2023-03-16T13:34:35.772Z,99472.95
2023-03-16T13:37:04.098Z,99474.41
2023-03-16T13:39:32.405Z,99469.69
2023-03-16T13:42:09.263Z,99465.71
2023-03-16T13:44:41.503Z,99463.98
2023-03-16T13:47:19.495Z,99466.84
2023-03-16T13:49:55.230Z,99473.32
2023-03-16T13:52:42.688Z,99474.13
2023-03-16T13:55:21.795Z,99472.98
2023-03-16T13:57:49.634Z,99474.34
2023-03-16T14:00:20.511Z,99473.90
2023-03-16T14:02:53.161Z,99470.99
2023-03-16T14:05:30.182Z,99466.53
2023-03-16T14:08:00.175Z,99466.57
2023-03-16T14:10:33.751Z,99481.87
2023-03-16T14:13:21.743Z,99490.09
2023-03-16T14:15:50.090Z,99492.90
2023-03-16T14:18:22.475Z,99494.89
2023-03-16T14:20:52.891Z,99499.77
2023-03-16T14:23:43.688Z,99498.52
2023-03-16T14:26:21.256Z,99495.72
2023-03-16T14:29:04.724Z,99492.55
2023-03-16T14:31:39.110Z,99493.99
2023-03-16T14:34:26.967Z,99503.16
2023-03-16T14:37:19.670Z,99511.27
2023-03-16T14:40:02.098Z,99519.70
2023-03-16T14:42:30.741Z,99525.41
2023-03-16T14:45:10.630Z,99533.87
2023-03-16T14:47:42.204Z,99535.10
2023-03-16T14:50:16.426Z,99534.42
2023-03-16T14:52:45.375Z,99532.65
2023-03-16T14:55:15.035Z,99530.34
2023-03-16T14:57:44.723Z,99528.15
2023-03-16T15:00:16.191Z,99536.71
2023-03-16T15:02:51.367Z,99545.66
2023-03-16T15:05:28.595Z,99546.09
2023-03-16T15:07:56.397Z,99546.42
2023-03-16T15:10:27.109Z,99548.45
2023-03-16T15:13:03.890Z,99551.64
2023-03-16T15:15:32.069Z,99562.04
2023-03-16T15:18:01.740Z,99561.12
2023-03-16T15:20:34.841Z,99556.79
2023-03-16T15:23:02.852Z,99559.16
2023-03-16T15:25:40.116Z,99565.02
2023-03-16T15:28:18.431Z,99566.11
2023-03-16T15:30:54.450Z,99567.65
2023-03-16T15:33:22.983Z,99570.46
2023-03-16T15:35:52.369Z,99573.67
2023-03-16T15:38:32.873Z,99575.60
2023-03-16T15:41:00.104Z,99577.16
2023-03-16T15:43:30.491Z,99577.84
2023-03-16T15:45:59.483Z,99575.75
2023-03-16T15:48:27.127Z,99564.05
2023-03-16T15:50:59.664Z,99569.15
2023-03-16T15:53:35.577Z,99564.05
2023-03-16T15:56:07.953Z,99572.95
2023-03-16T15:58:37.872Z,99573.89
2023-03-16T16:01:08.213Z,99577.88
2023-03-16T16:03:35.209Z,99580.45
2023-03-16T16:06:02.491Z,99587.08
2023-03-16T16:08:32.511Z,99592.16
2023-03-16T16:10:59.904Z,99595.16
2023-03-16T16:13:43.121Z,99597.58
2023-03-16T16:16:13.963Z,99593.42
2023-03-16T16:18:41.859Z,99589.92
2023-03-16T16:21:23.305Z,99586.44
2023-03-16T16:23:52.309Z,99589.08
2023-03-16T16:26:50.049Z,99596.34
2023-03-16T16:29:24.375Z,99604.27
2023-03-16T16:31:52.652Z,99610.27
2023-03-16T16:34:23.766Z,99615.34
2023-03-16T16:36:51.290Z,99614.43
2023-03-16T16:39:18.413Z,99617.63
2023-03-16T16:41:49.422Z,99616.91
2023-03-16T16:44:21.084Z,99613.85
2023-03-16T16:46:51.869Z,99615.88
2023-03-16T16:49:23.627Z,99619.81
2023-03-16T16:51:52.089Z,99618.05
2023-03-16T16:54:22.489Z,99623.30
2023-03-16T16:56:52.677Z,99623.81
2023-03-16T16:59:23.954Z,99630.85
2023-03-16T17:01:53.465Z,99631.29
2023-03-16T17:04:25.531Z,99626.65
2023-03-16T17:06:57.895Z,99627.44
2023-03-16T17:09:27.686Z,99625.58
2023-03-16T17:11:58.195Z,99628.84
2023-03-16T17:14:27.621Z,99623.38
2023-03-16T17:17:02.112Z,99628.02
2023-03-16T17:19:32.242Z,99625.99
2023-03-16T17:21:59.359Z,99629.48
2023-03-16T17:24:29.306Z,99627.75
2023-03-16T17:26:59.698Z,99628.55
2023-03-16T17:29:30.965Z,99633.08
2023-03-16T17:32:15.060Z,99644.23
2023-03-16T17:34:42.459Z,99648.58
2023-03-16T17:37:17.362Z,99653.07
2023-03-16T17:39:45.272Z,99659.12
2023-03-16T17:42:18.038Z,99661.94
2023-03-16T17:44:48.175Z,99665.83
2023-03-16T17:47:26.944Z,99666.05
2023-03-16T17:49:54.247Z,99661.54
2023-03-16T17:52:25.101Z,99664.77
2023-03-16T17:54:53.637Z,99669.02
2023-03-16T17:57:28.736Z,99667.11
2023-03-16T17:59:55.948Z,99662.44
2023-03-16T18:02:26.054Z,99665.55
2023-03-16T18:04:54.496Z,99668.75
2023-03-16T18:07:21.841Z,99666.61
2023-03-16T18:10:15.494Z,99668.60
2023-03-16T18:12:43.812Z,99665.86
2023-03-16T18:15:17.848Z,99670.30
2023-03-16T18:17:45.731Z,99672.52
2023-03-16T18:20:22.827Z,99672.17
2023-03-16T18:22:50.462Z,99673.69
2023-03-16T18:25:32.562Z,99674.98
2023-03-16T18:28:02.148Z,99672.65
2023-03-16T18:30:32.397Z,99666.10
2023-03-16T18:33:00.518Z,99667.00
2023-03-16T18:35:28.492Z,99671.48
2023-03-16T18:37:55.857Z,99673.60
2023-03-16T18:40:24.149Z,99675.98
2023-03-16T18:42:53.854Z,99682.70
2023-03-16T18:45:27.294Z,99684.50
2023-03-16T18:47:57.454Z,99692.04
2023-03-16T18:50:28.177Z,99691.66
2023-03-16T18:52:57.791Z,99694.27
2023-03-16T18:55:25.352Z,99692.59
2023-03-16T18:57:55.917Z,99693.15
2023-03-16T19:00:29.224Z,99689.97
2023-03-16T19:03:00.168Z,99687.88
2023-03-16T19:05:36.228Z,99693.70
2023-03-16T19:08:04.654Z,99692.93
2023-03-16T19:10:36.277Z,99689.80
2023-03-16T19:13:10.988Z,99695.29
2023-03-16T19:15:38.740Z,99693.79
2023-03-16T19:18:05.710Z,99697.60
2023-03-16T19:20:34.771Z,99694.05
2023-03-16T19:23:15.554Z,99689.30
2023-03-16T19:25:42.857Z,99687.41
2023-03-16T19:28:17.447Z,99687.63
2023-03-16T19:30:47.029Z,99679.22
2023-03-16T19:33:20.397Z,99681.30
2023-03-16T19:35:55.347Z,99689.27
2023-03-16T19:38:25.792Z,99693.75
2023-03-16T19:40:56.172Z,99692.86
2023-03-16T19:43:26.632Z,99692.14
2023-03-16T19:45:55.898Z,99691.75
2023-03-16T19:48:32.362Z,99694.09
2023-03-16T19:51:00.023Z,99696.39
2023-03-16T19:53:29.334Z,99696.18
2023-03-16T19:55:56.642Z,99698.32
2023-03-16T19:58:30.193Z,99702.48
2023-03-16T20:00:58.419Z,99703.61
2023-03-16T20:03:25.623Z,99712.20
2023-03-16T20:05:53.086Z,99709.30
2023-03-16T20:08:26.375Z,99709.58
2023-03-16T20:11:01.686Z,99710.31
2023-03-16T20:13:36.120Z,99710.56
2023-03-16T20:16:03.378Z,99708.06
2023-03-16T20:18:30.451Z,99706.23
2023-03-16T20:21:04.510Z,99704.13
2023-03-16T20:23:34.491Z,99705.92
2023-03-16T20:26:02.925Z,99704.28
2023-03-16T20:28:37.952Z,99703.58
2023-03-16T20:31:08.886Z,99703.05
2023-03-16T20:33:37.637Z,99698.09
2023-03-16T20:36:05.087Z,99698.70
2023-03-16T20:38:33.009Z,99698.84
2023-03-16T20:41:00.630Z,99698.81
2023-03-16T20:43:31.002Z,99702.27
2023-03-16T20:46:00.962Z,99701.87
2023-03-16T20:48:28.783Z,99705.16
2023-03-16T20:50:57.773Z,99707.20
2023-03-16T20:53:26.700Z,99707.37
2023-03-16T20:55:55.884Z,99707.73
2023-03-16T20:58:27.575Z,99703.80
2023-03-16T21:00:57.157Z,99704.96
2023-03-16T21:03:29.668Z,99705.77
2023-03-16T21:05:59.693Z,99705.61
2023-03-16T21:08:27.404Z,99707.83
2023-03-16T21:11:00.772Z,99703.61
2023-03-16T21:13:32.602Z,99690.80
2023-03-16T21:16:02.876Z,99689.98
2023-03-16T21:18:34.395Z,99682.40
2023-03-16T21:21:02.697Z,99678.45
2023-03-16T21:23:29.761Z,99678.96
2023-03-16T21:26:00.877Z,99675.91
2023-03-16T21:28:32.958Z,99676.32
2023-03-16T21:31:00.585Z,99674.23
2023-03-16T21:33:41.541Z,99669.32
2023-03-16T21:36:17.965Z,99668.79
2023-03-16T21:38:46.852Z,99659.48
2023-03-16T21:41:16.173Z,99660.16
2023-03-16T21:43:44.289Z,99662.25
2023-03-16T21:46:20.198Z,99663.26
2023-03-16T21:48:51.679Z,99661.09
2023-03-16T21:51:24.449Z,99659.41
2023-03-16T21:53:52.937Z,99671.02
2023-03-16T21:56:23.277Z,99677.41
2023-03-16T21:58:52.207Z,99688.31
2023-03-16T22:01:30.999Z,99692.48
2023-03-16T22:04:08.713Z,99694.37
2023-03-16T22:06:36.112Z,99696.36
2023-03-16T22:09:03.604Z,99698.36
2023-03-16T22:11:31.545Z,99692.44
2023-03-16T22:13:59.789Z,99681.97
2023-03-16T22:16:32.948Z,99674.70
2023-03-16T22:19:01.507Z,99671.70
2023-03-16T22:21:44.561Z,99668.61
2023-03-16T22:24:16.953Z,99674.95
2023-03-16T22:26:44.047Z,99675.20
2023-03-16T22:29:30.505Z,99680.42
2023-03-16T22:32:03.623Z,99696.13
2023-03-16T22:34:32.190Z,99699.80
2023-03-16T22:37:01.381Z,99700.17
2023-03-16T22:39:33.717Z,99693.56
2023-03-16T22:42:16.060Z,99699.48
2023-03-16T22:44:43.107Z,99705.60
2023-03-16T22:47:28.594Z,99709.41
2023-03-16T22:49:55.553Z,99708.24
2023-03-16T22:52:28.370Z,99709.55
2023-03-16T22:54:57.189Z,99707.12
2023-03-16T22:57:24.564Z,99714.16
2023-03-16T22:59:52.451Z,99713.69
2023-03-16T23:02:23.882Z,99715.30
2023-03-16T23:04:50.956Z,99713.30
2023-03-16T23:07:19.221Z,99712.45
2023-03-16T23:09:47.970Z,99708.39
2023-03-16T23:12:21.434Z,99706.95
2023-03-16T23:14:49.469Z,99706.80
2023-03-16T23:17:21.677Z,99715.02
2023-03-16T23:19:54.295Z,99725.54
2023-03-16T23:22:21.274Z,99728.67
2023-03-16T23:24:48.133Z,99720.46
2023-03-16T23:27:21.762Z,99724.02
2023-03-16T23:29:49.155Z,99729.93
2023-03-16T23:32:16.990Z,99736.50
2023-03-16T23:34:44.165Z,99745.02
2023-03-16T23:37:11.359Z,99741.15
2023-03-16T23:39:39.426Z,99742.63
2023-03-16T23:42:07.018Z,99744.48
2023-03-16T23:44:34.136Z,99741.58
2023-03-16T23:47:01.791Z,99739.34
2023-03-16T23:49:41.988Z,99736.29
2023-03-16T23:52:11.754Z,99733.70
2023-03-16T23:54:38.611Z,99731.09
2023-03-16T23:57:05.696Z,99734.46
2023-03-16T23:59:33.048Z,99736.58
